Athens, Indiana
Current Conditions -  °F | °C
As of 10:35 AM on Thursday 30 Oct 2014 (Local Time) from KRCR Reporting Station
Overcast Overcast  
Wind Chill:   Ceiling: 4100
Heat Index:   Visibility: 10mi
Dew Point:   Wind: 6mph
Humidity: 66%   Direction: 250°WSW
Pressure: 30.16"   Gusts: NA
Location:  41.05°N, 86.13°W
Report Text: KRCR 301435Z AUTO 25005KT 10SM OVC041 08/02 A3016 RMK AO2
Loading
Personal Weather Stations






























Interactive Weather Map
Tropical Storm Tracking
New forecast layout! Learn more

10-Day Weather Forecast

Advertisements
Track Severe Weather on mobile